Time;durP1;ratioP1;P1;durP2;ratioP2;P2;SDS_P1;SDS_P2;PMS_P1;PMS_P2;Temp;Humidity;BMP_temperature;BMP_pressure;BME280_temperature;BME280_humidity;BME280_pressure;Samples;Min_cycle;Max_cycle;Signal;HPM_P1;HPM_P2
2021/08/22 00:00:04;;;;;;;10.35;8.57;;;;;;;25.16;50.15;95457.06;5030163;28;20129;-70
2021/08/22 00:02:30;;;;;;;10.07;9.27;;;;;;;25.29;49.99;95473.78;5029812;28;20056;-70
2021/08/22 00:04:57;;;;;;;10.02;9.13;;;;;;;25.25;49.77;95448.50;5029955;28;20030;-70
2021/08/22 00:07:22;;;;;;;9.95;9.13;;;;;;;25.28;49.58;95458.59;5029739;28;20021;-70
2021/08/22 00:09:48;;;;;;;8.77;8.07;;;;;;;25.37;49.69;95473.34;5032173;28;20025;-70
2021/08/22 00:12:13;;;;;;;9.90;9.05;;;;;;;25.24;49.37;95453.16;5029634;28;20128;-70
2021/08/22 00:14:38;;;;;;;9.52;8.70;;;;;;;25.36;49.29;95460.16;5011383;28;20061;-70
2021/08/22 00:17:04;;;;;;;9.43;8.63;;;;;;;25.40;49.25;95466.38;5029280;28;20096;-70
2021/08/22 00:19:29;;;;;;;10.23;9.43;;;;;;;25.39;48.99;95476.47;5029826;28;20080;-70
2021/08/22 00:21:54;;;;;;;11.38;8.85;;;;;;;25.40;49.13;95460.91;5031720;28;20056;-71
2021/08/22 00:24:20;;;;;;;12.07;8.40;;;;;;;25.38;49.13;95458.56;5029669;28;20049;-70
2021/08/22 00:26:45;;;;;;;9.55;8.75;;;;;;;25.42;48.74;95447.69;5011753;28;20037;-70
2021/08/22 00:29:10;;;;;;;9.25;8.35;;;;;;;25.45;48.83;95454.31;5011969;28;20045;-70
2021/08/22 00:31:36;;;;;;;8.50;7.80;;;;;;;25.46;48.85;95461.28;5029144;28;20025;-71
2021/08/22 00:34:01;;;;;;;8.90;8.10;;;;;;;25.55;48.56;95451.56;5026950;28;20399;-70
2021/08/22 00:36:26;;;;;;;9.15;8.30;;;;;;;25.56;48.62;95465.94;5028094;28;20044;-70
2021/08/22 00:38:52;;;;;;;9.18;8.35;;;;;;;25.53;48.43;95448.44;5029491;28;20133;-71
2021/08/22 00:41:17;;;;;;;9.05;8.15;;;;;;;25.62;47.98;95450.75;5029819;28;20124;-71
2021/08/22 00:43:44;;;;;;;8.43;7.68;;;;;;;25.64;48.09;95446.47;5029632;28;20137;-70
2021/08/22 00:46:09;;;;;;;8.05;7.25;;;;;;;25.58;47.98;95439.09;5029405;28;20029;-70
2021/08/22 00:48:35;;;;;;;8.45;7.43;;;;;;;25.70;47.91;95455.03;5029091;28;20057;-70
2021/08/22 00:51:00;;;;;;;7.78;7.18;;;;;;;25.75;47.75;95457.38;5029147;28;20042;-70
2021/08/22 00:53:26;;;;;;;8.00;7.20;;;;;;;25.72;47.68;95447.22;5029383;28;20029;-70
2021/08/22 00:55:53;;;;;;;8.00;7.40;;;;;;;25.68;47.56;95449.94;5028828;28;20423;-70
2021/08/22 00:58:19;;;;;;;8.75;8.05;;;;;;;25.64;47.44;95445.66;5011300;28;20031;-70
2021/08/22 01:00:47;;;;;;;8.23;7.53;;;;;;;25.61;47.60;95441.81;5031158;28;20028;-69
2021/08/22 01:03:15;;;;;;;7.53;6.93;;;;;;;25.72;47.61;95460.06;5028496;28;20049;-70
2021/08/22 01:06:26;;;;;;;9.30;8.18;;;;;;;25.71;47.60;95453.84;5010903;28;20045;-70
2021/08/22 01:09:04;;;;;;;8.35;7.65;;;;;;;25.63;47.40;95449.56;5029175;28;20418;-70
2021/08/22 01:11:35;;;;;;;8.25;7.55;;;;;;;25.58;47.45;95452.69;5028974;28;20687;-70
2021/08/22 01:14:04;;;;;;;8.55;7.75;;;;;;;25.58;47.68;95452.69;5028955;28;20061;-71
2021/08/22 01:16:37;;;;;;;9.32;7.95;;;;;;;25.58;47.46;95434.41;5010862;28;20013;-70
2021/08/22 01:19:08;;;;;;;8.35;7.55;;;;;;;25.66;47.27;95437.91;5031017;28;20025;-70
2021/08/22 01:21:33;;;;;;;7.57;6.95;;;;;;;25.71;47.16;95436.72;5029263;28;20484;-70
2021/08/22 01:24:03;;;;;;;8.10;7.50;;;;;;;25.72;47.17;95432.81;5029022;28;20063;-71
2021/08/22 01:26:36;;;;;;;8.20;7.40;;;;;;;25.81;47.08;95428.53;5028605;28;20030;-70
2021/08/22 01:29:02;;;;;;;7.22;6.63;;;;;;;25.90;46.77;95433.56;5029023;28;20045;-70
2021/08/22 01:31:32;;;;;;;7.82;7.22;;;;;;;25.99;46.45;95435.84;5028376;28;20029;-70
2021/08/22 01:34:01;;;;;;;7.60;7.00;;;;;;;25.97;46.34;95438.22;5030460;28;20018;-70
2021/08/22 01:36:27;;;;;;;8.45;7.72;;;;;;;26.01;45.97;95436.25;5028172;28;20080;-70
2021/08/22 01:38:54;;;;;;;7.57;6.97;;;;;;;25.90;46.30;95406.31;5028522;28;20057;-68
2021/08/22 01:41:23;;;;;;;7.30;6.70;;;;;;;25.97;46.26;95430.81;5028586;28;20503;-70
2021/08/22 01:43:50;;;;;;;7.10;6.50;;;;;;;25.92;46.29;95429.25;5028563;28;20442;-70
2021/08/22 01:46:16;;;;;;;7.45;6.65;;;;;;;25.84;46.42;95438.63;5030074;28;20476;-70
2021/08/22 01:48:42;;;;;;;7.07;6.35;;;;;;;25.90;46.46;95447.19;5015000;28;20038;-70
2021/08/22 01:51:09;;;;;;;6.40;5.90;;;;;;;25.83;46.31;95450.72;5028371;28;20042;-70
2021/08/22 01:53:35;;;;;;;6.55;6.05;;;;;;;25.87;46.35;95453.44;5028391;28;20445;-70
2021/08/22 01:56:01;;;;;;;7.10;6.50;;;;;;;25.79;46.13;95449.94;5010295;28;20029;-70
2021/08/22 01:58:26;;;;;;;6.70;6.10;;;;;;;25.75;46.41;95468.25;5028309;28;20029;-69
2021/08/22 02:00:53;;;;;;;7.18;5.85;;;;;;;25.88;46.27;95472.09;5030422;28;20025;-70
2021/08/22 02:03:22;;;;;;;6.70;6.20;;;;;;;26.02;45.85;95478.69;5027808;28;20069;-69
2021/08/22 02:05:54;;;;;;;6.93;6.32;;;;;;;26.09;45.90;95476.69;5027995;28;20042;-70
2021/08/22 02:08:24;;;;;;;7.15;6.45;;;;;;;26.21;45.50;95478.22;5028265;28;20041;-69
2021/08/22 02:11:17;;;;;;;6.82;6.22;;;;;;;26.33;45.10;95483.22;5028139;28;20045;-69
2021/08/22 02:13:45;;;;;;;7.10;6.50;;;;;;;26.36;44.79;95482.44;5004109;28;20045;-69
2021/08/22 02:16:12;;;;;;;5.97;5.53;;;;;;;26.26;44.62;95475.09;5029846;28;20032;-70
2021/08/22 02:18:39;;;;;;;8.25;6.70;;;;;;;26.14;45.04;95465.38;5027546;28;20032;-69
2021/08/22 02:21:06;;;;;;;7.13;6.53;;;;;;;26.18;45.08;95487.19;5010405;28;20052;-69
2021/08/22 02:23:32;;;;;;;6.63;6.07;;;;;;;26.13;45.26;95479.41;5010380;28;20057;-69
2021/08/22 02:25:58;;;;;;;6.55;5.97;;;;;;;26.05;45.15;95475.16;5027618;28;20045;-71
2021/08/22 02:28:24;;;;;;;6.75;6.15;;;;;;;25.97;45.25;95476.38;5027999;28;20075;-70
2021/08/22 02:30:50;;;;;;;6.93;6.32;;;;;;;25.78;45.65;95480.31;5030050;28;20033;-70
2021/08/22 02:33:16;;;;;;;7.03;6.43;;;;;;;25.71;45.92;95474.88;5027666;28;20041;-70
2021/08/22 02:35:41;;;;;;;6.30;5.80;;;;;;;25.72;45.54;95488.09;5027281;28;20080;-70
2021/08/22 02:38:06;;;;;;;7.13;6.50;;;;;;;25.75;45.78;95497.47;5032008;28;20535;-70
2021/08/22 02:40:32;;;;;;;7.13;6.43;;;;;;;25.73;45.92;95502.47;5031613;28;20040;-72
2021/08/22 02:42:58;;;;;;;6.53;5.93;;;;;;;25.68;45.88;95525.44;5032950;28;20400;-70
2021/08/22 02:45:24;;;;;;;7.05;6.35;;;;;;;25.62;46.27;95494.34;5012760;28;20037;-70
2021/08/22 02:47:49;;;;;;;7.47;6.75;;;;;;;25.68;46.64;95509.09;5030925;28;20032;-70
2021/08/22 02:50:15;;;;;;;7.40;6.65;;;;;;;25.63;46.35;95493.16;5031452;28;20167;-70
2021/08/22 02:52:41;;;;;;;7.47;6.63;;;;;;;25.73;46.13;95497.81;5031464;28;20038;-70
2021/08/22 02:55:07;;;;;;;7.00;6.50;;;;;;;25.78;46.25;95508.34;5033465;28;20026;-70
2021/08/22 02:57:32;;;;;;;7.63;5.95;;;;;;;25.77;46.27;95511.47;5030138;28;20076;-70
2021/08/22 02:59:57;;;;;;;7.15;6.50;;;;;;;25.73;46.44;95505.97;5031418;28;20077;-70
2021/08/22 03:02:23;;;;;;;7.25;6.53;;;;;;;25.64;45.93;95500.16;5030928;28;20044;-70
2021/08/22 03:04:48;;;;;;;7.10;6.50;;;;;;;25.30;47.09;95511.50;5030988;28;20053;-70
2021/08/22 03:07:13;;;;;;;6.95;6.45;;;;;;;25.63;46.73;95523.13;5033081;28;20024;-70
2021/08/22 03:09:39;;;;;;;6.40;5.90;;;;;;;25.74;46.20;95510.25;5013668;28;20041;-70
2021/08/22 03:12:05;;;;;;;6.72;6.13;;;;;;;25.93;45.83;95525.44;5031043;28;20076;-70
2021/08/22 03:14:31;;;;;;;7.97;7.20;;;;;;;25.64;46.64;95541.03;5030943;28;20052;-70
2021/08/22 03:16:57;;;;;;;8.18;6.20;;;;;;;25.63;46.47;95536.75;5030539;28;20484;-70
2021/08/22 03:19:22;;;;;;;7.15;6.60;;;;;;;25.84;45.67;95535.97;5029006;28;20034;-69
2021/08/22 03:21:47;;;;;;;7.00;6.45;;;;;;;25.03;47.71;95541.03;5032907;28;20029;-70
2021/08/22 03:24:13;;;;;;;7.28;6.57;;;;;;;25.94;46.05;95548.78;5029525;28;20065;-70
2021/08/22 03:26:39;;;;;;;6.45;5.95;;;;;;;25.70;45.51;95557.78;5030697;28;20454;-70
2021/08/22 03:29:04;;;;;;;6.50;5.75;;;;;;;25.34;46.41;95577.63;5030365;28;20380;-70
2021/08/22 03:31:30;;;;;;;6.45;5.68;;;;;;;25.56;45.83;95567.50;5030748;28;20079;-69
2021/08/22 03:33:55;;;;;;;6.35;5.75;;;;;;;24.63;47.72;95615.56;5032279;28;20420;-69
2021/08/22 03:36:20;;;;;;;7.03;6.20;;;;;;;24.27;49.42;95631.66;5030141;28;20045;-70
2021/08/22 03:38:46;;;;;;;6.65;5.65;;;;;;;23.26;52.03;95642.13;5030729;28;20512;-69
2021/08/22 03:41:11;;;;;;;8.38;6.00;;;;;;;23.65;50.85;95649.84;5030519;28;20052;-69
2021/08/22 03:43:37;;;;;;;6.60;6.00;;;;;;;23.75;51.17;95654.59;5030655;28;20075;-70
2021/08/22 03:46:02;;;;;;;6.57;6.05;;;;;;;23.18;52.64;95645.91;5032164;28;20045;-70
2021/08/22 03:48:28;;;;;;;6.85;6.15;;;;;;;23.55;51.93;95662.94;5028863;28;20041;-70
2021/08/22 03:50:53;;;;;;;6.38;5.88;;;;;;;23.42;52.42;95671.75;5030387;28;20448;-70
2021/08/22 03:53:18;;;;;;;7.53;6.82;;;;;;;22.99;54.57;95665.88;5012592;28;20507;-70
2021/08/22 03:55:44;;;;;;;8.70;7.75;;;;;;;24.01;53.16;95678.88;5029968;28;20446;-69
2021/08/22 03:58:10;;;;;;;8.57;7.88;;;;;;;23.69;54.77;95697.59;5032314;28;20029;-69
2021/08/22 04:00:36;;;;;;;9.38;8.43;;;;;;;24.08;55.18;95705.31;5030081;28;20060;-69
2021/08/22 04:03:01;;;;;;;11.32;9.35;;;;;;;24.04;54.28;95699.84;5029923;28;20088;-69
2021/08/22 04:05:27;;;;;;;10.32;9.32;;;;;;;23.70;55.91;95691.03;5021595;28;20095;-69
2021/08/22 04:07:54;;;;;;;11.18;8.90;;;;;;;23.77;55.36;95696.53;5012135;28;20037;-70
2021/08/22 04:10:20;;;;;;;10.77;9.65;;;;;;;23.68;55.82;95704.19;5012552;28;20021;-69
2021/08/22 04:12:45;;;;;;;10.65;9.73;;;;;;;23.37;57.68;95689.16;5031933;28;20030;-70
2021/08/22 04:15:11;;;;;;;13.60;11.00;;;;;;;23.21;57.56;95681.22;5029827;28;20404;-69
2021/08/22 04:17:37;;;;;;;18.85;15.13;;;;;;;23.83;57.31;95683.38;5012359;28;20043;-70
2021/08/22 04:20:03;;;;;;;16.17;14.52;;;;;;;23.87;56.80;95681.47;5030241;28;20088;-70
2021/08/22 04:22:28;;;;;;;21.92;17.35;;;;;;;24.27;57.55;95686.03;5029753;28;20037;-69
2021/08/22 04:24:54;;;;;;;22.30;18.15;;;;;;;24.45;57.52;95671.78;5031478;28;20017;-70
2021/08/22 04:27:19;;;;;;;19.27;16.50;;;;;;;24.68;56.87;95685.13;5029594;28;20069;-70
2021/08/22 04:29:45;;;;;;;22.40;16.90;;;;;;;24.76;56.24;95671.16;5011740;28;20376;-70
2021/08/22 04:32:10;;;;;;;15.95;13.77;;;;;;;24.83;55.62;95684.03;5011716;28;20040;-70
2021/08/22 04:34:36;;;;;;;20.17;14.77;;;;;;;24.75;55.39;95675.03;5029275;28;20382;-69
2021/08/22 04:37:01;;;;;;;12.55;11.43;;;;;;;24.85;55.21;95689.84;5010185;28;20536;-69
2021/08/22 04:39:26;;;;;;;18.50;16.15;;;;;;;24.82;55.61;95685.94;5009618;28;20129;-70
2021/08/22 04:41:52;;;;;;;15.40;13.73;;;;;;;24.92;55.04;95692.59;5008393;28;20057;-70
2021/08/22 04:44:17;;;;;;;18.20;16.30;;;;;;;24.96;54.70;95692.63;5009423;28;20057;-70
2021/08/22 04:46:43;;;;;;;14.50;13.30;;;;;;;25.00;54.58;95685.25;5008208;28;20050;-70
2021/08/22 04:49:09;;;;;;;19.15;15.68;;;;;;;25.02;54.34;95682.91;5026676;28;20110;-70
2021/08/22 04:51:35;;;;;;;16.30;14.60;;;;;;;24.98;54.32;95669.31;5011461;28;20053;-70
2021/08/22 04:54:01;;;;;;;14.95;13.60;;;;;;;24.98;54.29;95663.06;5029257;28;20041;-70
2021/08/22 04:56:26;;;;;;;15.00;13.60;;;;;;;25.05;54.30;95666.59;5028806;28;20087;-70
2021/08/22 04:58:51;;;;;;;13.90;12.57;;;;;;;24.98;54.10;95631.22;5028908;28;20025;-70
2021/08/22 05:01:17;;;;;;;11.45;10.48;;;;;;;25.06;53.75;95635.53;5030933;28;20715;-70
2021/08/22 05:03:42;;;;;;;12.00;10.90;;;;;;;25.11;53.56;95628.94;5028430;28;20040;-71
2021/08/22 05:06:11;;;;;;;12.65;11.40;;;;;;;25.06;53.49;95615.66;5007424;28;20496;-71
2021/08/22 05:08:37;;;;;;;12.00;11.00;;;;;;;25.11;53.49;95628.94;5009499;28;20042;-70
2021/08/22 05:11:04;;;;;;;12.88;10.27;;;;;;;25.12;53.60;95620.38;5009409;28;20042;-70
2021/08/22 05:13:29;;;;;;;10.70;9.80;;;;;;;25.10;53.28;95602.88;5009612;28;20462;-70
2021/08/22 05:15:55;;;;;;;11.57;10.48;;;;;;;25.28;53.04;95616.50;5010857;28;20029;-70
2021/08/22 05:18:21;;;;;;;12.18;10.98;;;;;;;25.35;53.01;95609.13;5016719;28;20046;-71
2021/08/22 05:20:46;;;;;;;10.27;8.52;;;;;;;25.44;52.80;95610.69;5028579;28;20044;-70
2021/08/22 05:23:12;;;;;;;9.88;9.00;;;;;;;25.45;52.69;95602.13;5028775;28;20041;-70
2021/08/22 05:25:37;;;;;;;11.13;8.90;;;;;;;25.49;52.29;95597.47;5028307;28;20113;-70
2021/08/22 05:28:03;;;;;;;9.30;8.40;;;;;;;25.57;52.28;95593.56;5030490;28;20471;-69
2021/08/22 05:30:28;;;;;;;8.77;7.78;;;;;;;25.56;52.07;95586.56;5028480;28;20041;-72
2021/08/22 05:32:54;;;;;;;9.30;8.48;;;;;;;25.66;51.87;95593.19;5028329;28;20431;-70
2021/08/22 05:35:19;;;;;;;9.05;8.25;;;;;;;25.77;51.61;95596.69;5028182;28;20049;-70
2021/08/22 05:37:44;;;;;;;8.93;7.57;;;;;;;25.65;51.42;95591.63;5028253;28;20404;-71
2021/08/22 05:40:10;;;;;;;7.90;7.25;;;;;;;25.69;51.57;95581.50;5030575;28;20036;-70
2021/08/22 05:42:36;;;;;;;8.82;8.02;;;;;;;25.66;51.46;95588.50;5010801;28;20099;-71
2021/08/22 05:45:01;;;;;;;8.20;7.50;;;;;;;25.65;51.48;95576.06;5010319;28;20033;-71
2021/08/22 05:47:26;;;;;;;7.32;6.63;;;;;;;25.58;51.39;95570.59;5010496;28;20077;-71
2021/08/22 05:49:52;;;;;;;7.13;6.45;;;;;;;25.41;51.35;95558.56;5011055;28;20132;-70
2021/08/22 05:52:17;;;;;;;9.25;6.65;;;;;;;25.64;51.10;95590.06;5029080;28;20033;-70
2021/08/22 05:54:43;;;;;;;8.07;6.40;;;;;;;25.64;51.19;95581.88;5028705;28;20045;-70
2021/08/22 05:57:08;;;;;;;7.88;7.07;;;;;;;25.69;51.03;95586.94;5026942;28;20045;-71
2021/08/22 05:59:35;;;;;;;7.38;6.78;;;;;;;25.74;50.67;95569.41;5027132;28;20503;-71
2021/08/22 06:02:00;;;;;;;6.00;5.43;;;;;;;25.41;50.63;95512.25;5028220;28;20041;-67
2021/08/22 06:04:26;;;;;;;6.15;5.55;;;;;;;25.85;50.38;95565.56;5027694;28;20025;-71
2021/08/22 06:06:51;;;;;;;6.03;5.40;;;;;;;25.82;50.05;95560.88;5029925;28;20034;-71
2021/08/22 06:09:17;;;;;;;5.47;4.95;;;;;;;25.98;49.56;95565.13;5010481;28;20037;-71
2021/08/22 06:11:43;;;;;;;6.20;5.63;;;;;;;26.18;49.23;95579.88;5030078;28;20099;-71
2021/08/22 06:14:09;;;;;;;6.03;5.18;;;;;;;26.33;48.97;95586.84;5031921;28;20045;-71
2021/08/22 06:16:34;;;;;;;6.78;4.70;;;;;;;26.38;48.61;95577.47;5031870;28;20028;-70
2021/08/22 06:18:59;;;;;;;6.28;4.72;;;;;;;26.22;48.32;95533.53;5033528;28;20109;-66
2021/08/22 06:21:25;;;;;;;5.10;4.60;;;;;;;26.71;47.73;95584.38;5014531;28;20061;-66
2021/08/22 06:23:51;;;;;;;4.65;4.25;;;;;;;27.05;47.50;95575.63;5030660;28;20045;-66
2021/08/22 06:26:17;;;;;;;5.22;4.72;;;;;;;27.42;46.32;95581.22;5031362;28;20057;-66
2021/08/22 06:28:42;;;;;;;4.20;3.90;;;;;;;27.64;45.64;95575.59;5031754;28;20033;-66
2021/08/22 06:31:08;;;;;;;4.78;3.78;;;;;;;27.76;45.80;95580.59;5033757;28;20112;-66
2021/08/22 06:33:33;;;;;;;5.57;3.92;;;;;;;28.01;44.65;95577.63;5031491;28;20065;-66
2021/08/22 06:36:00;;;;;;;5.00;4.13;;;;;;;28.01;44.44;95585.06;5013480;28;20045;-66
2021/08/22 06:38:26;;;;;;;4.95;4.10;;;;;;;28.12;44.13;95580.25;5031653;28;20034;-66
2021/08/22 06:40:52;;;;;;;3.88;3.58;;;;;;;28.29;43.36;95584.75;5031831;28;20029;-66
2021/08/22 06:43:17;;;;;;;4.25;3.95;;;;;;;28.26;43.18;95582.06;5033639;28;20506;-66
2021/08/22 06:45:42;;;;;;;4.30;3.30;;;;;;;28.41;43.70;95576.03;5031228;28;20491;-66
2021/08/22 06:48:08;;;;;;;4.00;3.60;;;;;;;28.53;43.20;95576.69;5031286;28;20084;-66
2021/08/22 06:50:33;;;;;;;4.70;4.30;;;;;;;28.48;42.96;95584.16;5031476;28;20445;-68
2021/08/22 06:52:59;;;;;;;4.00;3.70;;;;;;;28.63;42.82;95592.19;5031708;28;20685;-67
2021/08/22 06:55:24;;;;;;;3.92;3.63;;;;;;;28.65;42.62;95593.34;5031383;28;20056;-65
2021/08/22 06:57:49;;;;;;;3.65;3.42;;;;;;;29.02;42.56;95597.19;5031760;28;20029;-67
2021/08/22 07:00:15;;;;;;;3.88;3.58;;;;;;;28.97;42.10;95598.44;5031502;28;20428;-66
2021/08/22 07:02:44;;;;;;;5.38;3.70;;;;;;;29.06;42.15;95602.59;5030089;28;20083;-66
2021/08/22 07:05:11;;;;;;;3.83;3.45;;;;;;;29.09;41.94;95596.31;5030552;28;20114;-66
2021/08/22 07:07:36;;;;;;;3.65;3.35;;;;;;;29.04;41.84;95594.03;5030900;28;20037;-65
2021/08/22 07:10:02;;;;;;;3.60;3.40;;;;;;;29.11;41.38;95591.97;5015431;28;20156;-67
2021/08/22 07:12:27;;;;;;;3.22;3.03;;;;;;;29.16;41.64;95585.25;5013265;28;20403;-66
2021/08/22 07:14:53;;;;;;;3.30;3.05;;;;;;;29.49;41.33;95603.53;5030906;28;20499;-66
2021/08/22 07:17:20;;;;;;;3.60;3.35;;;;;;;29.62;41.06;95605.72;5030538;28;20052;-66
2021/08/22 07:19:46;;;;;;;3.00;2.80;;;;;;;29.73;40.10;95589.84;5030558;28;20220;-66
2021/08/22 07:22:11;;;;;;;3.13;2.83;;;;;;;29.92;39.56;95586.41;5032408;28;20056;-66
2021/08/22 07:24:37;;;;;;;3.15;2.90;;;;;;;30.11;39.52;95578.63;5012392;28;20500;-66
2021/08/22 07:27:02;;;;;;;3.08;2.78;;;;;;;30.33;39.55;95587.25;5030441;28;20034;-66
2021/08/22 07:29:27;;;;;;;5.53;3.00;;;;;;;30.46;38.65;95586.22;5030800;28;20049;-67
2021/08/22 07:31:53;;;;;;;3.40;2.85;;;;;;;30.60;38.48;95584.38;5030670;28;20033;-66
2021/08/22 07:34:18;;;;;;;2.95;2.75;;;;;;;30.62;37.87;95587.47;5018632;28;20029;-63
2021/08/22 07:36:43;;;;;;;3.35;3.05;;;;;;;30.59;38.92;95593.81;5032234;28;20021;-66
2021/08/22 07:39:11;;;;;;;3.20;2.80;;;;;;;30.73;38.27;95602.56;5030714;28;20051;-66
2021/08/22 07:41:37;;;;;;;4.30;3.83;;;;;;;30.86;38.29;95608.16;5012621;28;20546;-66
2021/08/22 07:44:02;;;;;;;3.00;2.80;;;;;;;31.00;37.68;95596.09;5030625;28;20137;-69
2021/08/22 07:46:28;;;;;;;2.83;2.63;;;;;;;31.09;37.30;95603.78;5030093;28;20049;-69
2021/08/22 07:48:53;;;;;;;3.90;2.88;;;;;;;31.14;37.17;95593.03;5031915;28;20018;-68
2021/08/22 07:51:18;;;;;;;3.08;2.70;;;;;;;31.36;37.30;95584.34;5030137;28;20084;-76
2021/08/22 07:53:44;;;;;;;3.10;2.80;;;;;;;31.41;36.75;95581.06;5030200;28;20050;-72
2021/08/22 07:56:09;;;;;;;3.80;2.72;;;;;;;31.66;36.29;95588.72;5029807;28;20061;-67
2021/08/22 07:58:34;;;;;;;2.47;2.33;;;;;;;31.75;35.75;95586.91;5030099;28;20022;-67
2021/08/22 08:01:00;;;;;;;2.55;2.35;;;;;;;31.71;35.61;95580.72;5032140;28;20032;-68
2021/08/22 08:03:25;;;;;;;2.80;2.50;;;;;;;31.75;36.33;95584.16;5029653;28;20045;-67
2021/08/22 08:05:50;;;;;;;3.08;2.80;;;;;;;31.74;36.14;95590.88;5029461;28;20072;-68
2021/08/22 08:08:16;;;;;;;2.35;2.25;;;;;;;31.91;35.72;95599.13;5029859;28;20029;-67
2021/08/22 08:10:41;;;;;;;3.42;2.90;;;;;;;31.64;36.18;95600.16;5011978;28;20037;-67
2021/08/22 08:13:06;;;;;;;3.00;2.72;;;;;;;31.72;35.89;95598.00;5031781;28;20022;-72
2021/08/22 08:15:32;;;;;;;3.00;2.80;;;;;;;31.78;36.40;95596.28;5029701;28;20091;-75
2021/08/22 08:17:57;;;;;;;2.88;2.53;;;;;;;32.08;35.46;95592.41;5030241;28;20069;-74
2021/08/22 08:20:22;;;;;;;2.58;2.47;;;;;;;32.34;34.73;95601.53;5029384;28;20125;-68
2021/08/22 08:22:48;;;;;;;2.60;2.40;;;;;;;32.47;34.00;95596.13;5029759;28;20087;-71
2021/08/22 08:25:13;;;;;;;2.35;2.17;;;;;;;31.95;34.97;95589.59;5031829;28;20053;-83
2021/08/22 08:27:38;;;;;;;2.90;2.70;;;;;;;32.25;34.71;95598.66;5012264;28;20083;-71
2021/08/22 08:30:04;;;;;;;2.65;2.45;;;;;;;32.48;34.51;95590.16;5029917;28;20038;-71
2021/08/22 08:32:30;;;;;;;2.88;2.67;;;;;;;32.67;34.86;95588.47;5029559;28;20137;-74
2021/08/22 08:34:56;;;;;;;3.00;2.80;;;;;;;32.95;34.13;95610.91;5028284;28;20144;-74
2021/08/22 08:37:22;;;;;;;2.70;2.40;;;;;;;33.08;33.41;95603.44;5028808;28;20037;-71
2021/08/22 08:39:47;;;;;;;2.85;2.58;;;;;;;33.22;33.75;95607.72;5030346;28;20029;-69
2021/08/22 08:42:32;;;;;;;2.67;2.47;;;;;;;33.52;33.35;95617.44;5029461;28;20057;-68
2021/08/22 08:44:57;;;;;;;2.60;2.25;;;;;;;33.57;32.99;95598.34;5028236;28;20491;-73
2021/08/22 08:47:24;;;;;;;2.67;2.47;;;;;;;33.18;32.98;95618.09;5029114;28;20091;-70
2021/08/22 08:50:23;;;;;;;2.97;2.78;;;;;;;32.79;33.50;95614.47;5028659;28;20107;-73
2021/08/22 08:52:59;;;;;;;2.92;2.72;;;;;;;32.68;34.06;95614.78;4992067;28;20045;-71
2021/08/22 08:55:29;;;;;;;2.28;2.17;;;;;;;33.17;33.79;95616.53;5009372;28;20030;-71
2021/08/22 08:57:57;;;;;;;3.28;2.97;;;;;;;33.52;32.43;95607.19;4993725;28;20442;-75
2021/08/22 09:00:26;;;;;;;2.47;2.28;;;;;;;33.86;32.75;95614.75;5009401;28;20042;-69
2021/08/22 09:02:51;;;;;;;12.43;11.13;;;;;;;34.02;32.32;95607.59;5009827;28;20070;-66
2021/08/22 09:05:25;;;;;;;38.50;25.27;;;;;;;32.04;34.59;95620.03;5023055;28;20073;-63
2021/08/22 09:08:19;;;;;;;81.20;51.90;;;;;;;31.32;35.79;95617.41;5007130;28;20042;-62
2021/08/22 09:11:02;;;;;;;5.43;4.93;;;;;;;31.72;35.12;95606.25;5009107;28;20045;-66
2021/08/22 09:14:05;;;;;;;58.63;41.30;;;;;;;32.48;33.88;95612.19;5009094;28;20034;-61
2021/08/22 09:17:01;;;;;;;3.75;3.30;;;;;;;32.18;34.50;95610.59;5010841;28;20026;-60
2021/08/22 09:20:05;;;;;;;25.13;19.92;;;;;;;31.56;34.13;95621.53;5015441;28;20021;-64
2021/08/22 09:22:36;;;;;;;3.03;2.83;;;;;;;32.60;33.48;95621.69;5028465;28;20045;-63
2021/08/22 09:25:19;;;;;;;6.78;6.13;;;;;;;31.11;35.59;95624.13;5012581;28;20132;-61
2021/08/22 09:28:06;;;;;;;5.63;5.13;;;;;;;28.26;40.82;95640.28;5028639;28;20073;-62
2021/08/22 09:31:09;;;;;;;3.35;3.10;;;;;;;29.43;39.25;95627.13;5028983;28;20037;-61
2021/08/22 09:34:25;;;;;;;3.30;3.10;;;;;;;30.09;37.46;95614.69;5010723;28;20059;-65
2021/08/22 09:37:29;;;;;;;3.63;3.33;;;;;;;30.63;36.17;95613.72;4948863;28;20528;-65
2021/08/22 09:40:28;;;;;;;3.78;3.45;;;;;;;29.79;36.56;95610.16;4997104;28;20053;-64
2021/08/22 09:43:14;;;;;;;3.63;3.33;;;;;;;29.11;39.42;95626.81;5027429;28;20431;-63
2021/08/22 09:46:18;;;;;;;3.47;3.28;;;;;;;28.85;39.19;95633.78;5027767;28;20526;-66
2021/08/22 09:49:22;;;;;;;3.28;2.97;;;;;;;28.66;40.77;95629.69;5027906;28;20067;-63
2021/08/22 09:51:47;;;;;;;3.30;2.83;;;;;;;29.63;38.00;95629.97;5022914;28;20084;-62
2021/08/22 09:54:44;;;;;;;2.95;2.75;;;;;;;29.54;38.44;95621.50;5027908;28;20061;-59
2021/08/22 09:57:27;;;;;;;3.13;2.92;;;;;;;28.23;39.63;95622.72;5027626;28;20034;-62
2021/08/22 10:00:05;;;;;;;3.33;3.00;;;;;;;28.83;39.11;95623.22;5010266;28;20045;-61
2021/08/22 10:03:01;;;;;;;4.68;3.20;;;;;;;28.59;38.70;95611.41;5028007;28;20476;-63
2021/08/22 10:05:43;;;;;;;3.40;3.10;;;;;;;30.45;36.37;95612.09;4975768;28;20049;-63
2021/08/22 10:08:29;;;;;;;3.28;2.97;;;;;;;30.34;35.61;95600.56;5026706;28;20423;-61
2021/08/22 10:11:07;;;;;;;3.05;2.65;;;;;;;31.71;35.49;95599.97;5026701;28;20403;-61
2021/08/22 10:13:36;;;;;;;2.85;2.65;;;;;;;31.49;34.81;95588.72;5027817;28;20506;-62
2021/08/22 10:16:02;;;;;;;3.40;3.10;;;;;;;32.07;33.97;95586.13;5029338;28;20111;-62
2021/08/22 10:18:27;;;;;;;3.17;2.85;;;;;;;32.78;33.43;95593.66;5027741;28;20084;-62
2021/08/22 10:21:06;;;;;;;3.15;2.95;;;;;;;33.65;31.44;95592.63;5027360;28;20048;-61
2021/08/22 10:23:32;;;;;;;3.45;2.88;;;;;;;32.07;33.35;95558.59;5027231;28;20064;-62
2021/08/22 10:25:58;;;;;;;2.90;2.70;;;;;;;32.80;32.16;95583.72;5027500;28;20491;-62
2021/08/22 10:29:00;;;;;;;3.17;2.97;;;;;;;33.05;31.79;95590.50;5027728;28;20032;-63
2021/08/22 10:31:50;;;;;;;2.90;2.70;;;;;;;30.45;33.91;95594.84;5017557;28;20482;-62
2021/08/22 10:34:20;;;;;;;3.35;2.72;;;;;;;29.11;37.36;95604.88;5028974;28;20154;-62
2021/08/22 10:36:45;;;;;;;2.97;2.78;;;;;;;29.89;36.94;95592.75;5006601;28;20442;-63
2021/08/22 10:39:19;;;;;;;3.10;2.90;;;;;;;30.88;35.08;95594.03;5008072;28;20038;-62
2021/08/22 10:41:45;;;;;;;3.00;2.80;;;;;;;30.03;36.00;95589.72;5008008;28;20041;-62
2021/08/22 10:44:36;;;;;;;3.00;2.80;;;;;;;30.20;36.16;95584.34;5007321;28;20045;-62
2021/08/22 10:47:11;;;;;;;;;;;;;;;30.29;36.16;95585.34;5002686;28;20504;-62
2021/08/22 10:49:54;;;;;;;3.40;3.10;;;;;;;30.64;36.17;95582.31;5012142;28;19967;-62
2021/08/22 10:52:29;;;;;;;3.40;3.20;;;;;;;30.99;35.64;95578.09;5026974;28;20096;-62
2021/08/22 10:55:09;;;;;;;3.20;3.00;;;;;;;30.13;37.33;95573.53;5029185;28;20104;-62
2021/08/22 11:00:29;;;;;;;3.33;3.13;;;;;;;29.47;37.28;95567.53;5031073;28;20346;-62
2021/08/22 11:02:56;;;;;;;3.33;3.13;;;;;;;29.47;38.01;95573.03;5030928;28;20048;-62
2021/08/22 11:05:30;;;;;;;3.63;3.28;;;;;;;30.30;36.45;95580.63;5019570;28;20461;-62
2021/08/22 11:07:56;;;;;;;3.70;3.40;;;;;;;30.87;34.78;95567.75;5009652;28;20078;-62
2021/08/22 11:10:23;;;;;;;3.45;3.15;;;;;;;30.47;35.56;95562.28;5010234;28;20165;-62
2021/08/22 11:12:51;;;;;;;3.65;3.35;;;;;;;30.10;36.34;95572.38;5012892;28;20513;-62
2021/08/22 11:15:29;;;;;;;3.10;2.65;;;;;;;30.91;35.19;95571.19;5011033;28;20042;-62
2021/08/22 11:17:57;;;;;;;3.45;3.15;;;;;;;32.00;33.32;95566.28;5010312;28;20124;-62
2021/08/22 11:20:26;;;;;;;3.28;2.95;;;;;;;31.47;33.99;95552.63;5019145;28;20060;-62
2021/08/22 11:23:08;;;;;;;3.20;2.90;;;;;;;32.24;33.69;95542.03;5029525;28;20094;-62
2021/08/22 11:25:35;;;;;;;3.58;3.05;;;;;;;33.17;32.26;95566.91;5030074;28;20112;-59
2021/08/22 11:28:12;;;;;;;3.25;2.80;;;;;;;33.79;31.76;95567.34;5032604;28;20387;-61
2021/08/22 11:30:39;;;;;;;3.20;3.00;;;;;;;33.93;31.22;95530.97;5030365;28;20124;-61
2021/08/22 11:33:06;;;;;;;2.90;2.70;;;;;;;34.19;29.86;95564.78;5030592;28;20521;-60
2021/08/22 11:35:35;;;;;;;3.20;2.90;;;;;;;34.27;30.09;95570.84;5029663;28;20049;-61
2021/08/22 11:38:01;;;;;;;3.55;3.33;;;;;;;33.60;30.40;95558.88;5030285;28;20048;-62
2021/08/22 11:40:28;;;;;;;3.20;3.00;;;;;;;34.61;29.97;95543.19;5030332;28;20026;-62
2021/08/22 11:42:57;;;;;;;3.58;3.38;;;;;;;35.12;29.42;95551.13;5014122;28;20025;-61